createdAt,value
2019-04-04T00:02:01.287Z,82.50
2019-04-04T00:07:06.761Z,84.80
2019-04-04T00:12:12.012Z,83.90
2019-04-04T00:17:17.026Z,82.20
2019-04-04T00:22:21.112Z,83.00
2019-04-04T00:27:25.283Z,83.10
2019-04-04T00:32:29.375Z,83.20
2019-04-04T00:37:36.088Z,83.70
2019-04-04T00:42:41.536Z,84.30
2019-04-04T00:47:46.571Z,83.20
2019-04-04T00:52:51.620Z,84.30
2019-04-04T00:57:56.973Z,84.00
2019-04-04T01:03:02.140Z,85.90
2019-04-04T01:08:07.526Z,84.60
2019-04-04T01:13:12.822Z,83.90
2019-04-04T01:18:17.955Z,84.30
2019-04-04T01:23:22.845Z,85.00
2019-04-04T01:28:28.956Z,84.70
2019-04-04T01:33:34.012Z,84.80
2019-04-04T01:38:39.138Z,80.90
2019-04-04T01:43:44.502Z,84.10
2019-04-04T01:48:50.602Z,85.60
2019-04-04T01:53:55.659Z,85.00
2019-04-04T01:59:00.888Z,85.30
2019-04-04T02:04:05.867Z,82.50
2019-04-04T02:09:10.977Z,82.50
2019-04-04T02:14:15.954Z,82.30
2019-04-04T02:19:20.933Z,84.10
2019-04-04T02:24:26.347Z,84.40
2019-04-04T02:29:30.852Z,83.80
2019-04-04T02:34:37.976Z,84.80
2019-04-04T02:39:43.715Z,84.00
2019-04-04T02:44:49.989Z,84.20
2019-04-04T02:49:55.038Z,85.20
2019-04-04T02:55:00.079Z,83.10
2019-04-04T03:00:06.414Z,83.80
2019-04-04T03:05:12.086Z,84.60
2019-04-04T03:10:16.999Z,84.60
2019-04-04T03:15:22.527Z,85.40
2019-04-04T03:20:27.711Z,83.70
2019-04-04T03:25:32.637Z,83.70
2019-04-04T03:30:37.681Z,84.20
2019-04-04T03:35:42.598Z,83.90
2019-04-04T03:40:45.963Z,84.60
2019-04-04T03:45:49.485Z,84.60
2019-04-04T03:50:56.708Z,86.70
2019-04-04T03:56:01.287Z,87.00
2019-04-04T04:01:06.544Z,87.00
2019-04-04T04:06:21.473Z,88.20
2019-04-04T04:11:30.673Z,88.90
2019-04-04T04:16:36.209Z,89.30
2019-04-04T04:21:43.377Z,88.80
2019-04-04T04:26:47.429Z,90.40
2019-04-04T04:31:51.983Z,89.00
2019-04-04T04:36:57.559Z,90.70
2019-04-04T04:42:02.638Z,89.40
2019-04-04T04:47:06.910Z,89.30
2019-04-04T04:52:12.247Z,91.40
2019-04-04T04:57:29.588Z,91.10
2019-04-04T05:02:26.246Z,89.90
2019-04-04T05:07:40.681Z,88.60
2019-04-04T05:18:14.169Z,88.80
2019-04-04T05:23:19.737Z,87.20
2019-04-04T05:28:25.552Z,87.60
2019-04-04T05:33:38.076Z,90.40
2019-04-04T05:38:46.895Z,88.90
2019-04-04T05:43:57.455Z,87.50
2019-04-04T05:49:13.446Z,89.80
2019-04-04T05:54:18.773Z,92.80
2019-04-04T05:59:24.382Z,92.60
2019-04-04T06:04:55.430Z,91.30
2019-04-04T06:10:03.118Z,90.70
2019-04-04T06:20:24.226Z,93.20
2019-04-04T06:25:34.183Z,93.90
2019-04-04T06:30:43.164Z,94.20
2019-04-04T06:35:54.814Z,92.90
2019-04-04T06:41:00.829Z,90.60
2019-04-04T06:46:05.561Z,92.20
2019-04-04T06:51:09.962Z,90.90
2019-04-04T06:56:14.938Z,91.00
2019-04-04T07:01:38.592Z,92.00
2019-04-04T07:06:45.174Z,89.50
2019-04-04T07:11:49.762Z,90.90
2019-04-04T07:16:54.334Z,90.60
2019-04-04T07:21:59.219Z,89.00
2019-04-04T07:27:03.608Z,89.30
2019-04-04T07:32:09.550Z,90.60
2019-04-04T07:37:14.731Z,89.80
2019-04-04T07:42:41.833Z,89.30
2019-04-04T07:47:47.777Z,91.00
2019-04-04T07:52:54.506Z,90.90
2019-04-04T07:57:59.480Z,91.00
2019-04-04T08:03:14.351Z,91.00
2019-04-04T08:08:21.275Z,90.90
2019-04-04T08:13:27.054Z,93.00
2019-04-04T08:18:32.079Z,91.30
2019-04-04T08:23:37.029Z,91.50
2019-04-04T08:28:41.940Z,96.50
2019-04-04T08:33:47.423Z,93.60
2019-04-04T08:38:55.960Z,90.30
2019-04-04T08:44:01.147Z,87.60
2019-04-04T08:49:05.238Z,87.70
2019-04-04T08:54:11.041Z,88.70
2019-04-04T08:59:36.624Z,91.00
2019-04-04T09:04:41.964Z,87.90
2019-04-04T09:09:46.971Z,87.50
2019-04-04T09:14:52.677Z,87.70
2019-04-04T09:19:57.853Z,86.80
2019-04-04T09:25:04.164Z,87.90
2019-04-04T09:30:11.473Z,86.30
2019-04-04T09:35:17.022Z,85.10
2019-04-04T09:40:21.920Z,86.00
2019-04-04T09:45:27.028Z,86.70
2019-04-04T09:50:32.209Z,84.40
2019-04-04T09:55:38.376Z,86.60
2019-04-04T10:00:44.344Z,86.30
2019-04-04T10:05:47.749Z,84.50
2019-04-04T10:10:51.226Z,84.40
2019-04-04T10:15:55.718Z,86.40
2019-04-04T10:21:11.271Z,82.50
2019-04-04T10:26:05.718Z,84.90
2019-04-04T10:31:09.659Z,81.90
2019-04-04T10:36:15.577Z,83.80
2019-04-04T10:41:20.968Z,83.80
2019-04-04T10:46:25.631Z,80.80
2019-04-04T10:51:30.207Z,80.40
2019-04-04T10:56:34.837Z,83.00
2019-04-04T11:01:40.858Z,79.00
2019-04-04T11:06:45.058Z,79.00
2019-04-04T11:11:49.611Z,82.30
2019-04-04T11:16:54.044Z,78.40
2019-04-04T11:21:58.414Z,79.70
2019-04-04T11:27:02.790Z,79.60
2019-04-04T11:32:07.163Z,78.00
2019-04-04T11:37:12.873Z,80.10
2019-04-04T11:42:17.965Z,79.70
2019-04-04T11:47:23.276Z,78.30
2019-04-04T11:52:40.171Z,76.20
2019-04-04T11:57:45.725Z,77.70
2019-04-04T12:02:50.732Z,79.30
2019-04-04T12:07:56.072Z,78.40
2019-04-04T12:13:01.876Z,77.40
2019-04-04T12:18:08.669Z,77.10
2019-04-04T12:23:13.600Z,80.70
2019-04-04T12:28:18.703Z,81.70
2019-04-04T12:33:23.931Z,79.50
2019-04-04T12:38:29.655Z,80.20
2019-04-04T12:43:34.724Z,78.60
2019-04-04T12:48:39.829Z,77.80
2019-04-04T12:53:44.474Z,78.30
2019-04-04T12:58:50.488Z,79.70
2019-04-04T13:03:55.661Z,79.90
2019-04-04T13:09:01.742Z,80.70
2019-04-04T13:14:08.805Z,78.60
2019-04-04T13:19:15.593Z,79.10
2019-04-04T13:24:20.591Z,78.40
2019-04-04T13:29:26.002Z,77.60
2019-04-04T13:34:31.157Z,76.70
2019-04-04T13:39:36.232Z,78.90
2019-04-04T13:44:41.523Z,79.40
2019-04-04T13:49:46.991Z,78.30
2019-04-04T13:54:55.647Z,78.90
2019-04-04T14:00:00.076Z,79.10
2019-04-04T14:05:10.101Z,78.30
2019-04-04T14:10:17.040Z,78.50
2019-04-04T14:15:21.336Z,76.50
2019-04-04T14:20:27.453Z,77.20
2019-04-04T14:25:32.563Z,78.10
2019-04-04T14:30:37.367Z,78.10
2019-04-04T14:35:42.364Z,76.20
2019-04-04T14:40:48.107Z,81.90
2019-04-04T14:45:53.614Z,77.20
2019-04-04T14:50:57.258Z,77.20
2019-04-04T14:56:01.515Z,74.40
2019-04-04T15:01:05.366Z,73.00
2019-04-04T15:06:10.103Z,73.20
2019-04-04T15:11:23.940Z,72.20
2019-04-04T15:16:20.845Z,73.10
2019-04-04T15:21:25.384Z,74.70
2019-04-04T15:26:29.992Z,72.90
2019-04-04T15:31:34.598Z,73.70
2019-04-04T15:36:38.236Z,72.70
2019-04-04T15:41:41.728Z,73.40
2019-04-04T15:46:46.053Z,72.40
2019-04-04T15:51:50.163Z,72.50
2019-04-04T15:56:54.360Z,71.20
2019-04-04T16:02:00.176Z,71.30
2019-04-04T16:07:06.015Z,72.20
2019-04-04T16:12:10.121Z,71.00
2019-04-04T16:17:14.478Z,72.80
2019-04-04T16:22:18.698Z,71.80
2019-04-04T16:27:23.984Z,70.90
2019-04-04T16:32:29.146Z,72.60
2019-04-04T16:37:36.543Z,72.00
2019-04-04T16:42:41.657Z,70.80
2019-04-04T16:47:47.130Z,70.10
2019-04-04T16:52:53.002Z,71.00
2019-04-04T16:57:58.623Z,70.70
2019-04-04T17:03:03.980Z,71.40
2019-04-04T17:08:09.170Z,73.20
2019-04-04T17:13:14.684Z,72.30
2019-04-04T17:18:20.262Z,74.40
2019-04-04T17:23:25.702Z,75.70
2019-04-04T17:28:31.928Z,73.00
2019-04-04T17:33:36.935Z,71.20
2019-04-04T17:38:42.584Z,71.70
2019-04-04T17:43:48.265Z,72.50
2019-04-04T17:48:54.006Z,72.50
2019-04-04T17:54:00.554Z,72.40
2019-04-04T17:59:05.631Z,72.20
2019-04-04T18:04:10.702Z,70.50
2019-04-04T18:09:16.161Z,71.00
2019-04-04T18:14:21.453Z,71.60
2019-04-04T18:19:26.940Z,73.60
2019-04-04T18:24:32.439Z,73.20
2019-04-04T18:29:37.300Z,71.20
2019-04-04T18:34:42.963Z,72.60
2019-04-04T18:39:48.596Z,71.90
2019-04-04T18:44:54.585Z,72.00
2019-04-04T18:50:01.171Z,71.40
2019-04-04T18:55:18.756Z,72.20
2019-04-04T19:00:14.405Z,75.10
2019-04-04T19:05:20.083Z,74.80
2019-04-04T19:10:26.429Z,74.80
2019-04-04T19:15:31.920Z,74.80
2019-04-04T19:20:38.259Z,74.30
2019-04-04T19:25:43.357Z,75.10
2019-04-04T19:30:48.901Z,78.00
2019-04-04T19:35:55.323Z,76.80
2019-04-04T19:40:59.566Z,75.10
2019-04-04T19:46:04.154Z,74.90
2019-04-04T19:51:08.630Z,81.70
2019-04-04T19:56:12.982Z,83.50
2019-04-04T20:01:17.286Z,83.70
2019-04-04T20:06:23.224Z,86.00
2019-04-04T20:11:27.748Z,86.70
2019-04-04T20:16:32.164Z,86.70
2019-04-04T20:21:36.900Z,85.70
2019-04-04T20:26:41.116Z,88.50
2019-04-04T20:31:46.481Z,88.70
2019-04-04T20:36:51.665Z,88.60
2019-04-04T20:41:55.792Z,90.30
2019-04-04T20:47:00.222Z,91.30
2019-04-04T20:52:04.606Z,93.60
2019-04-04T20:57:08.675Z,91.80
2019-04-04T21:02:13.043Z,90.80
2019-04-04T21:07:17.370Z,92.10
2019-04-04T21:12:21.885Z,92.20
2019-04-04T21:17:26.098Z,91.40
2019-04-04T21:22:31.954Z,92.00
2019-04-04T21:27:37.360Z,94.70
2019-04-04T21:32:43.190Z,91.10
2019-04-04T21:37:48.284Z,89.80
2019-04-04T21:42:53.362Z,89.60
2019-04-04T21:47:58.642Z,91.60
2019-04-04T21:58:29.762Z,89.60
2019-04-04T22:03:36.825Z,87.30
2019-04-04T22:08:42.120Z,85.50
2019-04-04T22:13:47.214Z,88.50
2019-04-04T22:18:52.224Z,87.80
2019-04-04T22:23:57.167Z,88.90
2019-04-04T22:29:02.486Z,87.60
2019-04-04T22:34:07.766Z,89.40
2019-04-04T22:39:12.921Z,88.50
2019-04-04T22:44:17.982Z,89.70
2019-04-04T22:49:23.066Z,90.00
2019-04-04T22:54:28.279Z,85.90
2019-04-04T22:59:35.098Z,89.10
2019-04-04T23:04:39.916Z,86.20
2019-04-04T23:09:44.968Z,84.30
2019-04-04T23:14:49.824Z,85.30
2019-04-04T23:19:54.880Z,84.10
2019-04-04T23:24:59.880Z,84.00
2019-04-04T23:30:07.760Z,81.90
2019-04-04T23:35:12.739Z,84.80
2019-04-04T23:40:17.692Z,86.10
2019-04-04T23:45:22.739Z,85.50
2019-04-04T23:50:29.398Z,86.00
2019-04-04T23:55:34.486Z,86.50
